createdAt,value
2019-02-07T00:02:37.136Z,37.80
2019-02-07T00:05:41.588Z,39.73
2019-02-07T00:08:46.036Z,42.33
2019-02-07T00:11:50.505Z,39.97
2019-02-07T00:14:55.231Z,35.77
2019-02-07T00:17:59.777Z,36.70
2019-02-07T00:21:04.232Z,37.87
2019-02-07T00:24:09.040Z,33.43
2019-02-07T00:27:13.612Z,38.00
2019-02-07T00:30:21.486Z,33.43
2019-02-07T00:33:25.986Z,38.23
2019-02-07T00:36:31.119Z,37.57
2019-02-07T00:39:35.561Z,34.97
2019-02-07T00:42:40.311Z,33.90
2019-02-07T00:45:45.007Z,32.83
2019-02-07T00:48:49.462Z,33.37
2019-02-07T00:51:54.264Z,38.87
2019-02-07T00:54:58.715Z,37.27
2019-02-07T00:58:03.226Z,37.33
2019-02-07T01:01:07.676Z,36.13
2019-02-07T01:04:12.371Z,40.23
2019-02-07T01:07:16.827Z,32.33
2019-02-07T01:10:30.109Z,36.20
2019-02-07T01:13:34.627Z,32.90
2019-02-07T01:16:39.253Z,34.33
2019-02-07T01:19:44.008Z,36.67
2019-02-07T01:22:49.350Z,36.90
2019-02-07T01:25:53.796Z,31.33
2019-02-07T01:28:58.241Z,37.07
2019-02-07T01:32:02.687Z,35.67
2019-02-07T01:35:07.466Z,31.03
2019-02-07T01:38:11.917Z,32.80
2019-02-07T01:41:16.375Z,33.03
2019-02-07T01:44:20.828Z,30.03
2019-02-07T01:47:25.283Z,33.80
2019-02-07T01:50:29.745Z,31.23
2019-02-07T01:53:34.200Z,34.07
2019-02-07T01:56:38.678Z,35.07
2019-02-07T01:59:43.141Z,32.23
2019-02-07T02:02:48.193Z,34.43
2019-02-07T02:05:52.646Z,33.03
2019-02-07T02:08:57.094Z,31.60
2019-02-07T02:12:01.632Z,35.00
2019-02-07T02:15:09.599Z,32.97
2019-02-07T02:18:14.084Z,35.33
2019-02-07T02:21:18.548Z,37.00
2019-02-07T02:27:29.976Z,30.33
2019-02-07T02:30:36.533Z,31.60
2019-02-07T02:33:41.276Z,31.40
2019-02-07T02:36:45.727Z,33.30
2019-02-07T02:39:50.182Z,30.53
2019-02-07T02:42:54.931Z,30.90
2019-02-07T02:45:59.395Z,33.60
2019-02-07T02:49:03.866Z,35.80
2019-02-07T02:52:08.714Z,35.23
2019-02-07T02:55:15.042Z,36.80
2019-02-07T02:58:19.509Z,31.57
2019-02-07T03:01:25.877Z,35.13
2019-02-07T03:04:37.728Z,29.90
2019-02-07T03:07:43.813Z,28.47
2019-02-07T03:10:48.397Z,30.77
2019-02-07T03:14:10.842Z,30.90
2019-02-07T03:17:26.480Z,32.33
2019-02-07T03:20:48.988Z,30.30
2019-02-07T03:23:59.101Z,28.73
2019-02-07T03:27:05.447Z,26.83
2019-02-07T03:30:30.481Z,27.73
2019-02-07T03:33:36.824Z,26.57
2019-02-07T03:36:49.022Z,26.83
2019-02-07T03:40:03.890Z,31.23
2019-02-07T03:43:15.899Z,37.10
2019-02-07T03:46:25.072Z,31.80
2019-02-07T03:49:34.012Z,37.07
2019-02-07T03:52:42.681Z,31.67
2019-02-07T03:56:00.940Z,32.03
2019-02-07T03:59:10.229Z,32.50
2019-02-07T04:02:32.663Z,33.77
2019-02-07T04:05:40.218Z,32.80
2019-02-07T04:08:46.304Z,38.30
2019-02-07T04:12:08.594Z,38.30
2019-02-07T04:15:29.824Z,35.97
2019-02-07T04:18:39.078Z,34.83
2019-02-07T04:21:51.466Z,35.70
2019-02-07T04:25:13.716Z,35.47
2019-02-07T04:28:25.617Z,35.37
2019-02-07T04:31:34.657Z,36.37
2019-02-07T04:34:56.790Z,35.50
2019-02-07T04:38:05.316Z,36.47
2019-02-07T04:41:26.441Z,30.40
2019-02-07T04:44:33.137Z,36.17
2019-02-07T04:47:57.432Z,34.17
2019-02-07T04:51:03.510Z,39.10
2019-02-07T04:54:20.149Z,32.63
2019-02-07T04:57:29.403Z,32.33
2019-02-07T05:00:39.619Z,33.17
2019-02-07T05:03:48.650Z,35.73
2019-02-07T05:07:00.415Z,32.70
2019-02-07T05:10:14.439Z,29.90
2019-02-07T05:13:32.552Z,33.70
2019-02-07T05:16:43.717Z,33.30
2019-02-07T05:19:59.041Z,32.50
2019-02-07T05:23:17.336Z,29.73
2019-02-07T05:26:29.031Z,28.67
2019-02-07T05:29:50.409Z,28.80
2019-02-07T05:32:56.525Z,32.20
2019-02-07T05:36:11.947Z,31.53
2019-02-07T05:39:20.443Z,30.33
2019-02-07T05:42:29.173Z,29.17
2019-02-07T05:45:35.260Z,26.33
2019-02-07T05:48:48.998Z,30.30
2019-02-07T05:51:59.464Z,28.37
2019-02-07T05:55:13.107Z,31.73
2019-02-07T05:58:21.863Z,27.60
2019-02-07T06:01:37.509Z,30.53
2019-02-07T06:04:43.883Z,30.40
2019-02-07T06:07:56.847Z,30.23
2019-02-07T06:11:17.921Z,37.13
2019-02-07T06:14:39.050Z,28.03
2019-02-07T06:17:47.789Z,28.13
2019-02-07T06:20:59.635Z,28.13
2019-02-07T06:24:15.056Z,29.47
2019-02-07T06:27:29.673Z,33.77
2019-02-07T06:30:36.074Z,27.87
2019-02-07T06:33:55.386Z,29.87
2019-02-07T06:37:03.887Z,32.27
2019-02-07T06:40:20.348Z,31.60
2019-02-07T06:43:41.046Z,35.40
2019-02-07T06:46:56.298Z,31.87
2019-02-07T06:50:02.386Z,29.50
2019-02-07T06:53:25.214Z,35.58
2019-02-07T06:56:43.546Z,35.53
2019-02-07T06:59:49.674Z,31.83
2019-02-07T07:02:53.898Z,36.57
2019-02-07T07:06:02.359Z,31.40
2019-02-07T07:09:29.577Z,30.90
2019-02-07T07:12:38.707Z,31.10
2019-02-07T07:15:46.000Z,33.07
2019-02-07T07:19:03.938Z,32.13
2019-02-07T07:22:25.263Z,32.27
2019-02-07T07:25:34.244Z,33.70
2019-02-07T07:28:40.883Z,29.73
2019-02-07T07:31:54.302Z,30.30
2019-02-07T07:35:16.861Z,36.10
2019-02-07T07:38:25.723Z,48.10
2019-02-07T07:41:35.727Z,32.90
2019-02-07T07:44:48.351Z,35.37
2019-02-07T07:47:57.415Z,31.57
2019-02-07T07:51:03.753Z,31.10
2019-02-07T07:54:10.128Z,29.77
2019-02-07T07:57:16.580Z,33.30
2019-02-07T08:00:21.129Z,31.77
2019-02-07T08:03:27.199Z,31.87
2019-02-07T08:06:33.857Z,30.23
2019-02-07T08:09:39.929Z,35.57
2019-02-07T08:12:58.473Z,29.67
2019-02-07T08:16:07.510Z,32.60
2019-02-07T08:19:16.399Z,32.10
2019-02-07T08:22:20.616Z,29.17
2019-02-07T08:25:29.383Z,33.07
2019-02-07T08:28:41.690Z,33.87
2019-02-07T08:31:55.207Z,26.67
2019-02-07T08:35:03.941Z,26.77
2019-02-07T08:38:10.023Z,33.43
2019-02-07T08:41:30.954Z,25.90
2019-02-07T08:44:37.030Z,24.67
2019-02-07T08:47:58.337Z,29.27
2019-02-07T08:51:02.488Z,23.50
2019-02-07T08:54:08.990Z,26.20
2019-02-07T08:57:27.136Z,29.17
2019-02-07T09:00:39.444Z,25.00
2019-02-07T09:04:01.993Z,23.03
2019-02-07T09:07:24.951Z,26.73
2019-02-07T09:10:47.187Z,22.33
2019-02-07T09:13:53.704Z,27.73
2019-02-07T09:17:00.341Z,26.47
2019-02-07T09:20:12.125Z,23.23
2019-02-07T09:23:35.023Z,30.30
2019-02-07T09:26:46.953Z,21.70
2019-02-07T09:30:08.797Z,28.73
2019-02-07T09:33:27.040Z,22.20
2019-02-07T09:36:36.005Z,19.77
2019-02-07T09:39:42.086Z,21.50
2019-02-07T09:43:00.413Z,20.97
2019-02-07T09:46:13.623Z,17.90
2019-02-07T09:49:26.262Z,19.40
2019-02-07T09:52:38.931Z,22.47
2019-02-07T09:55:45.863Z,15.00
2019-02-07T09:59:07.872Z,18.10
2019-02-07T10:02:13.940Z,20.07
2019-02-07T10:05:20.014Z,17.13
2019-02-07T10:08:41.327Z,15.70
2019-02-07T10:11:59.694Z,18.67
2019-02-07T10:15:23.969Z,20.13
2019-02-07T10:18:46.576Z,17.80
2019-02-07T10:21:58.986Z,18.63
2019-02-07T10:25:17.377Z,19.60
2019-02-07T10:28:35.736Z,17.60
2019-02-07T10:31:44.774Z,17.13
2019-02-07T10:35:06.819Z,18.20
2019-02-07T10:38:15.606Z,14.37
2019-02-07T10:41:38.280Z,16.47
2019-02-07T10:45:00.111Z,11.00
2019-02-07T10:48:24.096Z,14.80
2019-02-07T10:51:39.372Z,15.77
2019-02-07T10:55:01.511Z,13.63
2019-02-07T10:58:06.346Z,18.63
2019-02-07T11:01:22.271Z,16.43
2019-02-07T11:04:26.467Z,16.43
2019-02-07T11:07:50.641Z,16.30
2019-02-07T11:11:12.910Z,12.57
2019-02-07T11:14:21.651Z,17.23
2019-02-07T11:17:42.762Z,15.50
2019-02-07T11:21:00.508Z,17.07
2019-02-07T11:24:23.419Z,14.33
2019-02-07T11:27:45.690Z,16.63
2019-02-07T11:30:51.778Z,15.30
2019-02-07T11:34:06.898Z,12.93
2019-02-07T11:37:11.106Z,15.83
2019-02-07T11:40:23.697Z,16.43
2019-02-07T11:43:46.017Z,13.23
2019-02-07T11:47:04.987Z,14.80
2019-02-07T11:50:15.396Z,14.47
2019-02-07T11:53:24.737Z,18.30
2019-02-07T11:56:40.615Z,14.50
2019-02-07T11:59:49.465Z,12.10
2019-02-07T12:03:14.279Z,9.33
2019-02-07T12:06:29.410Z,9.40
2019-02-07T12:09:52.582Z,8.60
2019-02-07T12:13:02.780Z,12.17
2019-02-07T12:16:11.540Z,11.23
2019-02-07T12:19:23.578Z,13.43
2019-02-07T12:22:29.963Z,17.33
2019-02-07T12:25:47.888Z,22.13
2019-02-07T12:28:53.969Z,21.13
2019-02-07T12:32:16.309Z,21.97
2019-02-07T12:35:34.351Z,23.87
2019-02-07T12:38:46.423Z,22.00
2019-02-07T12:42:09.182Z,23.83
2019-02-07T12:45:32.121Z,22.10
2019-02-07T12:48:38.185Z,23.77
2019-02-07T12:51:44.285Z,26.33
2019-02-07T12:54:53.308Z,20.07
2019-02-07T12:58:09.264Z,24.67
2019-02-07T13:01:18.545Z,25.33
2019-02-07T13:04:25.843Z,31.10
2019-02-07T13:07:34.781Z,26.73
2019-02-07T13:10:46.321Z,26.60
2019-02-07T13:14:03.181Z,28.20
2019-02-07T13:17:12.712Z,29.83
2019-02-07T13:20:30.758Z,28.33
2019-02-07T13:23:52.668Z,26.03
2019-02-07T13:27:08.793Z,28.40
2019-02-07T13:30:35.564Z,44.40
2019-02-07T13:33:41.907Z,31.13
2019-02-07T13:37:02.962Z,34.00
2019-02-07T13:40:25.155Z,30.80
2019-02-07T13:43:47.262Z,27.23
2019-02-07T13:46:53.340Z,33.30
2019-02-07T13:50:15.500Z,29.43
2019-02-07T13:53:24.207Z,27.13
2019-02-07T13:56:33.267Z,27.90
2019-02-07T13:59:51.173Z,25.97
2019-02-07T14:02:57.254Z,28.00
2019-02-07T14:06:12.197Z,5.77
2019-02-07T14:09:18.275Z,4.90
2019-02-07T14:12:37.150Z,6.77
2019-02-07T14:15:43.216Z,4.37
2019-02-07T14:18:55.222Z,4.63
2019-02-07T14:22:07.115Z,3.97
2019-02-07T14:25:13.582Z,3.33
2019-02-07T14:28:29.352Z,4.83
2019-02-07T14:31:35.416Z,4.10
2019-02-07T14:34:47.342Z,2.80
2019-02-07T14:38:09.981Z,3.87
2019-02-07T14:41:19.527Z,2.67
2019-02-07T14:44:43.339Z,5.17
2019-02-07T14:47:48.040Z,2.60
2019-02-07T14:50:52.975Z,3.93
2019-02-07T14:54:00.601Z,3.20
2019-02-07T14:57:03.942Z,4.17
2019-02-07T15:00:15.786Z,3.13
2019-02-07T15:03:20.213Z,3.73
2019-02-07T15:06:24.639Z,3.70
2019-02-07T15:09:29.072Z,3.00
2019-02-07T15:12:33.523Z,3.00
2019-02-07T15:15:37.941Z,8.23
2019-02-07T15:18:42.716Z,9.80
2019-02-07T15:21:47.218Z,13.47
2019-02-07T15:24:51.973Z,11.90
2019-02-07T15:27:56.707Z,14.80
2019-02-07T15:31:01.125Z,14.40
2019-02-07T15:34:06.432Z,13.97
2019-02-07T15:37:11.201Z,15.73
2019-02-07T15:40:22.239Z,18.13
2019-02-07T15:43:27.216Z,17.20
2019-02-07T15:46:31.641Z,15.57
2019-02-07T15:49:36.578Z,16.37
2019-02-07T15:52:42.536Z,15.80
2019-02-07T15:55:47.690Z,15.67
2019-02-07T15:58:56.455Z,15.73
2019-02-07T16:02:02.932Z,12.70
2019-02-07T16:05:12.149Z,12.00
2019-02-07T16:08:16.615Z,9.37
2019-02-07T16:11:21.362Z,8.63
2019-02-07T16:14:25.806Z,7.67
2019-02-07T16:17:32.325Z,4.83
2019-02-07T16:20:36.518Z,3.53
2019-02-07T16:23:40.961Z,4.73
2019-02-07T16:26:46.778Z,3.27
2019-02-07T16:29:51.203Z,3.27
2019-02-07T16:32:55.631Z,4.00
2019-02-07T16:36:00.337Z,2.80
2019-02-07T16:39:07.824Z,2.37
2019-02-07T16:42:12.238Z,3.40
2019-02-07T16:45:22.996Z,2.87
2019-02-07T16:48:27.422Z,2.70
2019-02-07T16:51:32.198Z,1.83
2019-02-07T16:54:36.919Z,3.47
2019-02-07T16:57:42.468Z,3.23
2019-02-07T17:00:47.195Z,2.73
2019-02-07T17:03:51.616Z,3.53
2019-02-07T17:06:56.050Z,4.20
2019-02-07T17:10:00.900Z,3.77
2019-02-07T17:13:11.908Z,4.03
2019-02-07T17:16:16.682Z,3.90
2019-02-07T17:19:21.418Z,3.10
2019-02-07T17:22:26.147Z,3.57
2019-02-07T17:25:32.988Z,4.17
2019-02-07T17:28:37.648Z,3.07
2019-02-07T17:31:42.078Z,6.87
2019-02-07T17:34:46.807Z,2.40
2019-02-07T17:37:51.744Z,2.93
2019-02-07T17:40:56.180Z,3.77
2019-02-07T17:44:00.896Z,3.97
2019-02-07T17:47:05.733Z,3.23
2019-02-07T17:50:23.872Z,7.13
2019-02-07T17:53:28.302Z,5.40
2019-02-07T17:56:32.734Z,5.43
2019-02-07T17:59:37.163Z,5.60
2019-02-07T18:02:41.601Z,4.07
2019-02-07T18:05:46.101Z,4.07
2019-02-07T18:08:50.526Z,4.03
2019-02-07T18:11:54.954Z,4.40
2019-02-07T18:14:59.387Z,3.27
2019-02-07T18:18:04.509Z,3.87
2019-02-07T18:21:08.958Z,3.43
2019-02-07T18:24:13.392Z,2.77
2019-02-07T18:27:17.820Z,2.87
2019-02-07T18:30:23.594Z,3.50
2019-02-07T18:33:28.021Z,4.20
2019-02-07T18:36:32.783Z,4.03
2019-02-07T18:39:37.520Z,4.23
2019-02-07T18:42:41.962Z,3.63
2019-02-07T18:45:46.399Z,3.57
2019-02-07T18:48:50.831Z,5.00
2019-02-07T18:51:55.288Z,2.63
2019-02-07T18:54:59.697Z,3.13
2019-02-07T18:58:04.943Z,2.07
2019-02-07T19:01:09.463Z,3.43
2019-02-07T19:04:14.136Z,2.20
2019-02-07T19:07:18.576Z,2.93
2019-02-07T19:10:26.363Z,4.53
2019-02-07T19:13:30.789Z,3.20
2019-02-07T19:16:35.522Z,4.77
2019-02-07T19:19:39.948Z,3.87
2019-02-07T19:22:44.386Z,3.63
2019-02-07T19:25:49.097Z,4.97
2019-02-07T19:28:53.517Z,5.67
2019-02-07T19:31:58.425Z,5.13
2019-02-07T19:35:02.862Z,5.57
2019-02-07T19:38:07.353Z,4.97
2019-02-07T19:41:12.438Z,11.37
2019-02-07T19:44:16.873Z,10.13
2019-02-07T19:47:21.311Z,5.33
2019-02-07T19:50:28.029Z,8.77
2019-02-07T19:53:32.808Z,7.73
2019-02-07T19:56:37.241Z,7.87
2019-02-07T19:59:41.961Z,8.77
2019-02-07T20:02:46.465Z,6.40
2019-02-07T20:05:50.899Z,6.87
2019-02-07T20:08:56.045Z,8.30
2019-02-07T20:12:00.785Z,13.93
2019-02-07T20:15:12.645Z,9.57
2019-02-07T20:18:17.086Z,12.67
2019-02-07T20:21:21.524Z,13.40
2019-02-07T20:24:26.013Z,7.97
2019-02-07T20:27:30.880Z,8.57
2019-02-07T20:30:44.405Z,8.67
2019-02-07T20:33:49.147Z,4.40
2019-02-07T20:36:53.876Z,6.47
2019-02-07T20:39:58.299Z,5.67
2019-02-07T20:43:03.031Z,7.90
2019-02-07T20:46:07.804Z,8.60
2019-02-07T20:49:12.261Z,5.17
2019-02-07T20:52:16.691Z,5.57
2019-02-07T20:55:22.026Z,4.87
2019-02-07T20:58:26.468Z,7.43
2019-02-07T21:01:30.981Z,6.23
2019-02-07T21:04:35.421Z,7.30
2019-02-07T21:07:40.160Z,4.70
2019-02-07T21:10:44.584Z,8.27
2019-02-07T21:13:49.018Z,4.23
2019-02-07T21:16:53.452Z,4.83
2019-02-07T21:19:57.872Z,6.10
2019-02-07T21:23:02.578Z,7.13
2019-02-07T21:26:07.061Z,7.97
2019-02-07T21:29:11.738Z,5.23
2019-02-07T21:32:16.249Z,8.53
2019-02-07T21:35:22.286Z,9.20
2019-02-07T21:38:27.051Z,7.90
2019-02-07T21:41:32.091Z,5.67
2019-02-07T21:44:36.587Z,8.47
2019-02-07T21:47:41.021Z,8.53
2019-02-07T21:50:46.081Z,5.27
2019-02-07T21:53:50.857Z,7.20
2019-02-07T21:56:55.545Z,4.40
2019-02-07T22:00:01.026Z,6.00
2019-02-07T22:03:09.143Z,6.17
2019-02-07T22:06:13.831Z,5.60
2019-02-07T22:09:18.561Z,5.47
2019-02-07T22:12:22.987Z,7.67
2019-02-07T22:15:29.040Z,6.27
2019-02-07T22:18:33.783Z,8.53
2019-02-07T22:21:38.276Z,9.13
2019-02-07T22:24:43.045Z,7.07
2019-02-07T22:27:47.977Z,7.27
2019-02-07T22:30:52.451Z,8.43
2019-02-07T22:33:57.225Z,8.13
2019-02-07T22:37:01.959Z,6.80
2019-02-07T22:40:11.119Z,5.50
2019-02-07T22:43:15.554Z,7.50
2019-02-07T22:46:19.981Z,6.27
2019-02-07T22:49:24.418Z,6.33
2019-02-07T22:52:28.868Z,10.43
2019-02-07T22:55:33.304Z,8.90
2019-02-07T22:58:38.039Z,9.13
2019-02-07T23:01:44.674Z,6.93
2019-02-07T23:04:49.172Z,9.60
2019-02-07T23:07:53.892Z,7.53
2019-02-07T23:10:58.312Z,6.57
2019-02-07T23:14:02.818Z,7.80
2019-02-07T23:17:07.970Z,8.47
2019-02-07T23:20:12.647Z,8.50
2019-02-07T23:23:17.097Z,11.90
2019-02-07T23:26:21.524Z,7.03
2019-02-07T23:29:25.973Z,10.37
2019-02-07T23:32:30.695Z,6.97
2019-02-07T23:35:35.144Z,6.77
2019-02-07T23:38:39.648Z,7.70
2019-02-07T23:41:44.073Z,8.90
2019-02-07T23:44:48.504Z,5.20
2019-02-07T23:47:53.227Z,8.93
2019-02-07T23:50:57.952Z,6.80
2019-02-07T23:54:02.389Z,8.23
2019-02-07T23:57:07.109Z,9.20
